Time;durP1;ratioP1;P1;durP2;ratioP2;P2;SDS_P1;SDS_P2;PMS_P1;PMS_P2;Temp;Humidity;BMP_temperature;BMP_pressure;BME280_temperature;BME280_humidity;BME280_pressure;Samples;Min_cycle;Max_cycle;Signal;HPM_P1;HPM_P2
2021/03/31 00:00:17;;;;;;;;;;;;;;;0.85;78.94;96869.63;1785473;80;20431;-60
2021/03/31 00:02:47;;;;;;;;;;;;;;;0.73;79.74;96874.33;1785853;80;20158;-59
2021/03/31 00:05:15;;;;;;;;;;;;;;;0.65;79.94;96871.43;1785422;80;20142;-59
2021/03/31 00:07:42;;;;;;;;;;;;;;;0.67;79.34;96873.69;1785484;80;20486;-59
2021/03/31 00:10:19;;;;;;;;;;;;;;;0.78;79.05;96877.62;1782763;80;20151;-59
2021/03/31 00:12:47;;;;;;;;;;;;;;;0.91;79.45;96873.78;1777061;81;20167;-59
2021/03/31 00:15:16;;;;;;;;;;;;;;;0.95;79.44;96868.28;1776947;81;20158;-59
2021/03/31 00:17:43;;;;;;;;;;;;;;;1.03;78.78;96863.87;1776920;81;20155;-59
2021/03/31 00:20:13;;;;;;;;;;;;;;;1.12;78.47;96863.32;1777053;81;20150;-59
2021/03/31 00:22:42;;;;;;;;;;;;;;;1.13;78.65;96852.50;1776970;80;20139;-59
2021/03/31 00:25:12;;;;;;;;;;;;;;;1.00;78.61;96855.93;1777163;81;20427;-59
2021/03/31 00:27:40;;;;;;;;;;;;;;;0.92;79.23;96853.87;1777107;81;20147;-59
2021/03/31 00:30:10;;;;;;;;;;;;;;;0.91;79.34;96856.89;1776854;81;20147;-59
2021/03/31 00:32:37;;;;;;;;;;;;;;;0.92;79.15;96855.17;1776966;81;20164;-60
2021/03/31 00:35:06;;;;;;;;;;;;;;;1.03;78.93;96854.77;1776609;81;20159;-60
2021/03/31 00:37:35;;;;;;;;;;;;;;;1.17;78.80;96857.88;1777026;81;20143;-59
2021/03/31 00:40:09;;;;;;;;;;;;;;;1.19;78.31;96857.95;1777031;81;20429;-59
2021/03/31 00:42:37;;;;;;;;;;;;;;;1.02;78.51;96855.58;1776873;81;20167;-59
2021/03/31 00:45:07;;;;;;;;;;;;;;;0.85;79.02;96852.31;1776990;81;20436;-59
2021/03/31 00:47:35;;;;;;;;;;;;;;;0.76;78.98;96851.10;1777269;81;20135;-59
2021/03/31 00:50:08;;;;;;;;;;;;;;;0.69;78.83;96863.37;1776703;81;20131;-59
2021/03/31 00:52:36;;;;;;;;;;;;;;;0.71;78.60;96853.52;1777072;81;20139;-59
2021/03/31 00:55:06;;;;;;;;;;;;;;;0.74;78.99;96852.33;1776941;81;20163;-59
2021/03/31 00:57:35;;;;;;;;;;;;;;;0.62;79.32;96848.82;1777059;81;20143;-59
2021/03/31 01:00:05;;;;;;;;;;;;;;;0.49;79.43;96847.86;1777034;81;20150;-59
2021/03/31 01:02:33;;;;;;;;;;;;;;;0.53;79.56;96841.98;1776818;80;20154;-59
2021/03/31 01:05:00;;;;;;;;;;;;;;;0.55;79.53;96839.42;1776840;81;20436;-59
2021/03/31 01:07:28;;;;;;;;;;;;;;;0.53;80.24;96831.98;1776951;81;20150;-59
2021/03/31 01:09:55;;;;;;;;;;;;;;;0.49;79.74;96833.58;1777523;80;20151;-60
2021/03/31 01:12:29;;;;;;;;;;;;;;;0.60;80.55;96828.80;1776933;81;20163;-59
2021/03/31 01:15:20;;;;;;;;;;;;;;;0.67;80.08;96826.05;1777007;81;20433;-59
2021/03/31 01:18:20;;;;;;;;;;;;;;;0.60;80.21;96819.72;1776836;81;20155;-62
2021/03/31 01:21:03;;;;;;;;;;;;;;;0.69;79.65;96819.20;1776825;81;20158;-62
2021/03/31 01:24:04;;;;;;;;;;;;;;;0.81;79.33;96813.20;1776308;80;20147;-62
2021/03/31 01:26:44;;;;;;;;;;;;;;;0.92;79.17;96813.59;1776863;81;20178;-62
2021/03/31 01:29:28;;;;;;;;;;;;;;;0.94;78.83;96821.05;1776962;81;20160;-62
2021/03/31 01:32:35;;;;;;;;;;;;;;;0.98;78.68;96824.21;1759015;80;20444;-59
2021/03/31 01:35:10;;;;;;;;;;;;;;;0.92;78.34;96827.47;1776814;81;20147;-62
2021/03/31 01:37:42;;;;;;;;;;;;;;;0.72;77.87;96830.59;1777203;81;20162;-62
2021/03/31 01:40:12;;;;;;;;;;;;;;;0.68;77.87;96825.21;1777136;81;20139;-62
2021/03/31 01:42:44;;;;;;;;;;;;;;;0.52;79.17;96830.22;1776934;81;20163;-59
2021/03/31 01:45:13;;;;;;;;;;;;;;;0.38;80.24;96831.86;1777287;81;20273;-60
2021/03/31 01:47:43;;;;;;;;;;;;;;;0.45;80.54;96834.69;1776965;81;20162;-59
2021/03/31 01:50:11;;;;;;;;;;;;;;;0.49;79.32;96844.39;1776938;81;20130;-59
2021/03/31 01:52:41;;;;;;;;;;;;;;;0.50;79.42;96839.23;1777042;81;20131;-59
2021/03/31 01:55:12;;;;;;;;;;;;;;;0.51;79.32;96842.33;1777138;81;20142;-59
2021/03/31 01:57:40;;;;;;;;;;;;;;;0.57;79.23;96839.08;1777204;81;20159;-59
2021/03/31 02:00:08;;;;;;;;;;;;;;;0.52;79.12;96835.00;1776931;81;20134;-59
2021/03/31 02:02:44;;;;;;;;;;;;;;;0.40;79.47;96830.60;1776978;81;20499;-59
2021/03/31 02:05:12;;;;;;;;;;;;;;;0.47;79.49;96834.34;1776803;81;20178;-59
2021/03/31 02:07:40;;;;;;;;;;;;;;;0.57;79.64;96840.38;1757712;81;20146;-59
2021/03/31 02:10:11;;;;;;;;;;;;;;;0.61;80.12;96835.38;1777304;81;20242;-59
2021/03/31 02:12:40;;;;;;;;;;;;;;;0.54;79.98;96826.86;1776938;81;20147;-59
2021/03/31 02:15:10;;;;;;;;;;;;;;;0.57;80.29;96839.08;1776799;81;20135;-59
2021/03/31 02:17:37;;;;;;;;;;;;;;;0.55;80.59;96834.23;1757890;81;20139;-59
2021/03/31 02:20:06;;;;;;;;;;;;;;;0.63;80.13;96831.52;1777239;81;20139;-59
2021/03/31 02:22:35;;;;;;;;;;;;;;;0.64;79.87;96835.91;1776914;81;20150;-59
2021/03/31 02:25:05;;;;;;;;;;;;;;;0.68;80.10;96831.70;1776913;81;20151;-59
2021/03/31 02:27:33;;;;;;;;;;;;;;;0.81;80.02;96825.77;1777126;81;20167;-59
2021/03/31 02:30:00;;;;;;;;;;;;;;;1.00;79.98;96823.44;1776869;81;20127;-59
2021/03/31 02:32:28;;;;;;;;;;;;;;;1.01;79.44;96826.53;1777108;81;20432;-59
2021/03/31 02:34:58;;;;;;;;;;;;;;;1.02;79.72;96829.59;1776861;81;20158;-59
2021/03/31 02:37:26;;;;;;;;;;;;;;;0.98;79.84;96822.53;1776927;81;20420;-60
2021/03/31 02:39:55;;;;;;;;;;;;;;;0.96;80.03;96820.66;1777328;81;20155;-59
2021/03/31 02:42:25;;;;;;;;;;;;;;;1.05;79.90;96822.32;1777019;81;20155;-59
2021/03/31 02:44:54;;;;;;;;;;;;;;;1.04;79.24;96828.36;1777312;81;20520;-59
2021/03/31 02:47:24;;;;;;;;;;;;;;;1.04;79.41;96825.34;1777019;81;20162;-59
2021/03/31 02:49:55;;;;;;;;;;;;;;;1.08;79.74;96831.53;1777199;81;20187;-59
2021/03/31 02:52:23;;;;;;;;;;;;;;;1.17;79.77;96825.39;1776952;81;20162;-59
2021/03/31 02:54:52;;;;;;;;;;;;;;;1.25;79.23;96823.95;1777100;81;20138;-59
2021/03/31 02:57:20;;;;;;;;;;;;;;;1.28;79.83;96829.67;1776841;81;20162;-59
2021/03/31 02:59:48;;;;;;;;;;;;;;;1.18;79.86;96827.14;1777270;81;20151;-59
2021/03/31 03:02:18;;;;;;;;;;;;;;;1.08;79.53;96817.23;1777338;81;20146;-59
2021/03/31 03:04:49;;;;;;;;;;;;;;;1.10;79.90;96822.08;1777248;81;20142;-59
2021/03/31 03:07:17;;;;;;;;;;;;;;;1.08;80.00;96819.83;1777047;81;20167;-59
2021/03/31 03:09:46;;;;;;;;;;;;;;;1.08;79.46;96822.05;1777263;81;20290;-59
2021/03/31 03:12:15;;;;;;;;;;;;;;;1.11;79.02;96821.66;1777192;80;20151;-59
2021/03/31 03:14:47;;;;;;;;;;;;;;;1.12;79.02;96815.66;1777017;81;20174;-60
2021/03/31 03:17:16;;;;;;;;;;;;;;;1.02;79.68;96814.41;1776911;81;20163;-59
2021/03/31 03:19:43;;;;;;;;;;;;;;;0.98;79.42;96820.31;1777215;81;20409;-59
2021/03/31 03:22:12;;;;;;;;;;;;;;;0.95;79.21;96813.70;1777182;81;20154;-59
2021/03/31 03:24:44;;;;;;;;;;;;;;;0.98;79.46;96816.41;1776992;81;20425;-59
2021/03/31 03:27:15;;;;;;;;;;;;;;;0.92;79.53;96813.17;1777133;81;20190;-59
2021/03/31 03:29:48;;;;;;;;;;;;;;;0.89;79.51;96811.77;1776759;80;20151;-60
2021/03/31 03:32:16;;;;;;;;;;;;;;;0.88;79.52;96809.09;1777138;81;20135;-59
2021/03/31 03:34:46;;;;;;;;;;;;;;;0.89;79.45;96808.30;1777280;81;20162;-59
2021/03/31 03:37:16;;;;;;;;;;;;;;;0.79;79.39;96802.73;1777070;81;20420;-59
2021/03/31 03:39:44;;;;;;;;;;;;;;;0.80;79.71;96802.31;1777212;81;20151;-59
2021/03/31 03:42:12;;;;;;;;;;;;;;;0.84;79.88;96808.11;1777059;81;20447;-60
2021/03/31 03:44:39;;;;;;;;;;;;;;;0.90;79.80;96803.12;1776950;81;20147;-60
2021/03/31 03:47:07;;;;;;;;;;;;;;;0.89;80.01;96801.80;1777393;81;20282;-59
2021/03/31 03:49:38;;;;;;;;;;;;;;;0.83;80.08;96804.63;1777002;81;20432;-60
2021/03/31 03:52:07;;;;;;;;;;;;;;;0.80;80.21;96803.19;1776920;81;20437;-60
2021/03/31 03:54:34;;;;;;;;;;;;;;;0.83;79.69;96805.02;1757999;81;20131;-60
2021/03/31 03:57:02;;;;;;;;;;;;;;;0.86;79.57;96811.23;1776998;81;20472;-60
2021/03/31 03:59:30;;;;;;;;;;;;;;;0.79;79.17;96811.83;1777184;81;20167;-60
2021/03/31 04:01:57;;;;;;;;;;;;;;;0.82;79.32;96801.96;1777007;81;20166;-60
2021/03/31 04:04:24;;;;;;;;;;;;;;;0.72;79.95;96802.02;1776984;81;20131;-60
2021/03/31 04:06:51;;;;;;;;;;;;;;;0.79;80.04;96809.64;1757806;81;20154;-60
2021/03/31 04:09:19;;;;;;;;;;;;;;;0.86;80.11;96802.56;1776988;81;20155;-60
2021/03/31 04:11:47;;;;;;;;;;;;;;;0.92;80.16;96804.50;1776896;80;20151;-60
2021/03/31 04:14:15;;;;;;;;;;;;;;;1.02;80.63;96814.41;1777069;81;20142;-60
2021/03/31 04:16:44;;;;;;;;;;;;;;;0.98;80.64;96805.63;1777214;81;20178;-60
2021/03/31 04:19:14;;;;;;;;;;;;;;;0.99;80.95;96805.21;1757597;81;20170;-60
2021/03/31 04:21:41;;;;;;;;;;;;;;;1.11;80.95;96806.06;1776869;81;20146;-60
2021/03/31 04:24:13;;;;;;;;;;;;;;;1.19;80.64;96795.56;1777249;81;20143;-60
2021/03/31 04:26:41;;;;;;;;;;;;;;;1.26;81.21;96801.43;1776689;81;20146;-60
2021/03/31 04:29:11;;;;;;;;;;;;;;;1.25;81.12;96806.17;1758006;81;20174;-60
2021/03/31 04:31:39;;;;;;;;;;;;;;;1.28;80.78;96799.35;1777072;81;20420;-59
2021/03/31 04:34:07;;;;;;;;;;;;;;;1.33;80.46;96792.15;1776950;81;20154;-60
2021/03/31 04:36:35;;;;;;;;;;;;;;;1.33;80.63;96799.95;1776836;81;20167;-59
2021/03/31 04:39:05;;;;;;;;;;;;;;;1.21;80.93;96799.08;1776880;81;20429;-59
2021/03/31 04:41:34;;;;;;;;;;;;;;;1.16;80.60;96795.03;1776864;81;20159;-60
2021/03/31 04:44:02;;;;;;;;;;;;;;;1.25;80.67;96792.75;1777129;81;20135;-61
2021/03/31 04:46:29;;;;;;;;;;;;;;;1.36;81.22;96785.36;1776991;81;20139;-60
2021/03/31 04:48:57;;;;;;;;;;;;;;;1.40;81.58;96787.22;1777120;81;20408;-60
2021/03/31 04:51:24;;;;;;;;;;;;;;;1.45;81.37;96785.67;1774425;81;20165;-59
2021/03/31 04:53:52;;;;;;;;;;;;;;;1.42;81.33;96779.48;1775568;81;20159;-60
2021/03/31 04:56:19;;;;;;;;;;;;;;;1.44;81.27;96781.73;1775082;81;20132;-64
2021/03/31 04:58:47;;;;;;;;;;;;;;;1.54;81.16;96781.23;1774376;81;20504;-60
2021/03/31 05:01:15;;;;;;;;;;;;;;;1.63;81.38;96776.75;1775199;81;20140;-62
2021/03/31 05:03:42;;;;;;;;;;;;;;;1.77;81.18;96785.05;1775492;81;20167;-66
2021/03/31 05:06:10;;;;;;;;;;;;;;;1.92;81.12;96782.97;1735870;83;20143;-66
2021/03/31 05:08:38;;;;;;;;;;;;;;;2.07;81.32;96786.50;1691808;85;20149;-61
2021/03/31 05:11:06;;;;;;;;;;;;;;;2.21;81.26;96786.95;1735987;83;20143;-64
2021/03/31 05:13:33;;;;;;;;;;;;;;;2.32;81.38;96775.17;1735944;82;20127;-60
2021/03/31 05:16:01;;;;;;;;;;;;;;;2.42;80.81;96773.33;1735694;83;20178;-63
2021/03/31 05:18:28;;;;;;;;;;;;;;;2.51;81.03;96775.33;1735741;82;20425;-60
2021/03/31 05:20:56;;;;;;;;;;;;;;;2.49;79.59;96771.36;1735998;83;20143;-61
2021/03/31 05:23:23;;;;;;;;;;;;;;;2.41;79.68;96768.94;1735825;83;20412;-61
2021/03/31 05:25:50;;;;;;;;;;;;;;;2.47;80.02;96774.75;1735946;82;20138;-61
2021/03/31 05:28:18;;;;;;;;;;;;;;;2.46;79.68;96770.39;1717289;83;20150;-61
2021/03/31 05:30:46;;;;;;;;;;;;;;;2.46;80.04;96771.27;1735793;83;20151;-61
2021/03/31 05:33:13;;;;;;;;;;;;;;;2.57;80.47;96771.20;1735977;83;20139;-61
2021/03/31 05:35:40;;;;;;;;;;;;;;;2.75;80.90;96773.91;1736172;82;20377;-61
2021/03/31 05:38:07;;;;;;;;;;;;;;;2.92;80.63;96770.06;1735747;83;20155;-60
2021/03/31 05:40:35;;;;;;;;;;;;;;;3.05;80.04;96772.64;1735730;83;20198;-62
2021/03/31 05:43:03;;;;;;;;;;;;;;;3.11;80.18;96774.54;1736060;83;20139;-61
2021/03/31 05:45:32;;;;;;;;;;;;;;;3.21;79.92;96777.87;1735844;82;20139;-64
2021/03/31 05:48:00;;;;;;;;;;;;;;;3.34;79.63;96781.72;1735854;83;20143;-62
2021/03/31 05:50:28;;;;;;;;;;;;;;;3.43;79.12;96785.48;1736068;83;20142;-61
2021/03/31 05:52:55;;;;;;;;;;;;;;;3.49;79.01;96786.48;1735636;82;20135;-61
2021/03/31 05:55:23;;;;;;;;;;;;;;;3.55;79.16;96784.91;1736032;83;20412;-62
2021/03/31 05:57:50;;;;;;;;;;;;;;;3.61;79.23;96779.88;1735662;83;20147;-64
2021/03/31 06:00:19;;;;;;;;;;;;;;;3.72;78.66;96776.24;1735528;83;20162;-63
2021/03/31 06:02:48;;;;;;;;;;;;;;;3.81;78.79;96773.89;1728347;83;20127;-66
2021/03/31 06:05:17;;;;;;;;;;;;;;;3.93;78.25;96779.87;1736553;81;20402;-67
2021/03/31 06:07:47;;;;;;;;;;;;;;;4.08;78.17;96778.05;1713742;82;20148;-67
2021/03/31 06:10:17;;;;;;;;;;;;;;;4.26;77.74;96780.27;1698094;82;20189;-76
2021/03/31 06:12:51;;;;;;;;;;;;;;;4.42;77.66;96781.52;1723785;82;20448;-68
2021/03/31 06:15:36;;;;;;;;;;;;;;;4.53;76.00;96777.41;1728374;83;20436;-66
2021/03/31 06:18:10;;;;;;;;;;;;;;;4.64;75.29;96772.46;1706357;83;20143;-67
2021/03/31 06:20:45;;;;;;;;;;;;;;;4.85;75.43;96772.94;1713066;83;20145;-68
2021/03/31 06:26:28;;;;;;;;;;;;;;;5.35;75.17;96772.27;1713048;83;20140;-66
2021/03/31 06:29:06;;;;;;;;;;;;;;;5.70;74.50;96773.41;1712883;84;20136;-66
2021/03/31 06:31:37;;;;;;;;;;;;;;;5.99;74.22;96766.10;1692996;84;20166;-67
2021/03/31 06:34:14;;;;;;;;;;;;;;;6.26;73.33;96765.70;1680132;85;20143;-65
2021/03/31 06:36:44;;;;;;;;;;;;;;;6.42;72.51;96772.95;1673335;85;20178;-67
2021/03/31 06:39:24;;;;;;;;;;;;;;;6.64;72.59;96771.56;1697384;84;20241;-68
2021/03/31 06:42:03;;;;;;;;;;;;;;;6.84;71.94;96761.81;1697353;85;20472;-71
2021/03/31 06:44:36;;;;;;;;;;;;;;;7.02;71.33;96761.19;1696785;85;20165;-66
2021/03/31 06:49:43;;;;;;;;;;;;;;;7.17;69.35;96759.21;1697122;85;20158;-63
2021/03/31 06:52:12;;;;;;;;;;;;;;;7.30;69.83;96755.88;1697017;85;20150;-69
2021/03/31 06:54:46;;;;;;;;;;;;;;;7.46;69.47;96760.88;1697240;85;20241;-64
2021/03/31 06:57:17;;;;;;;;;;;;;;;7.51;69.09;96762.72;1696355;84;20178;-67
2021/03/31 06:59:44;;;;;;;;;;;;;;;7.50;68.57;96758.75;1696564;85;20157;-65
2021/03/31 07:02:14;;;;;;;;;;;;;;;7.48;68.55;96753.91;1697184;85;20153;-67
2021/03/31 07:04:44;;;;;;;;;;;;;;;7.57;68.92;96757.52;1697338;85;20139;-63
2021/03/31 07:07:12;;;;;;;;;;;;;;;7.68;68.04;96752.83;1669986;85;20166;-64
2021/03/31 07:09:39;;;;;;;;;;;;;;;7.86;68.29;96759.62;1697034;84;20153;-65
2021/03/31 07:12:18;;;;;;;;;;;;;;;8.03;67.91;96754.52;1703486;82;20401;-62
2021/03/31 07:14:47;;;;;;;;;;;;;;;8.15;67.91;96756.39;1720137;83;20134;-62
2021/03/31 07:17:25;;;;;;;;;;;;;;;8.35;66.83;96753.50;1721288;83;20404;-62
2021/03/31 07:19:53;;;;;;;;;;;;;;;8.53;67.27;96750.17;1722221;83;20446;-65
2021/03/31 07:22:21;;;;;;;;;;;;;;;8.75;66.14;96739.38;1722150;83;20197;-63
2021/03/31 07:24:49;;;;;;;;;;;;;;;8.96;66.68;96739.95;1722286;83;20123;-62
2021/03/31 07:27:16;;;;;;;;;;;;;;;9.11;64.13;96735.20;1711157;83;20151;-61
2021/03/31 07:32:35;;;;;;;;;;;;;;;9.55;65.34;96734.55;1722374;83;20519;-62
2021/03/31 07:35:06;;;;;;;;;;;;;;;9.83;62.83;96739.46;1722471;83;20241;-63
2021/03/31 07:37:34;;;;;;;;;;;;;;;10.11;61.36;96732.48;1722247;83;20229;-62
2021/03/31 07:40:05;;;;;;;;;;;;;;;10.45;62.98;96732.53;1722421;83;20362;-64
2021/03/31 07:42:33;;;;;;;;;;;;;;;10.74;61.36;96719.78;1722184;83;20178;-65
2021/03/31 07:45:04;;;;;;;;;;;;;;;10.92;57.68;96717.55;1722328;83;20138;-64
2021/03/31 07:47:33;;;;;;;;;;;;;;;11.00;54.46;96710.48;1722379;83;20400;-65
2021/03/31 07:50:00;;;;;;;;;;;;;;;11.12;55.75;96709.13;1722610;82;20158;-64
2021/03/31 07:52:51;;;;;;;;;;;;;;;11.20;53.89;96708.66;1722280;83;20142;-66
2021/03/31 07:55:29;;;;;;;;;;;;;;;11.32;50.78;96710.39;1684092;85;20138;-64
2021/03/31 07:58:19;;;;;;;;;;;;;;;11.45;50.84;96705.93;1822919;79;20229;-64
2021/03/31 08:01:02;;;;;;;;;;;;;;;11.45;48.28;96711.22;1796257;80;20253;-64
2021/03/31 08:03:32;;;;;;;;;;;;;;;11.56;49.99;96700.59;1796289;80;20419;-65
2021/03/31 08:06:14;;;;;;;;;;;;;;;11.68;48.07;96700.08;1765614;80;20138;-64
2021/03/31 08:08:49;;;;;;;;;;;;;;;11.85;49.45;96707.94;1796353;80;20233;-66
2021/03/31 08:11:23;;;;;;;;;;;;;;;12.04;48.31;96706.07;1794584;78;20308;-65
2021/03/31 08:13:52;;;;;;;;;;;;;;;12.15;48.29;96705.15;1759420;79;20156;-65
2021/03/31 08:16:35;;;;;;;;;;;;;;;12.32;48.35;96704.13;1824982;79;20149;-65
2021/03/31 08:19:05;;;;;;;;;;;;;;;12.45;46.39;96703.59;1826158;78;20145;-65
2021/03/31 08:21:33;;;;;;;;;;;;;;;12.62;48.03;96698.58;1826449;79;20117;-64
2021/03/31 08:24:05;;;;;;;;;;;;;;;12.77;46.95;96694.46;1826233;78;20113;-70
2021/03/31 08:26:35;;;;;;;;;;;;;;;12.94;46.48;96694.30;1826123;79;20152;-61
2021/03/31 08:29:09;;;;;;;;;;;;;;;13.09;46.34;96694.59;1826412;79;20378;-65
2021/03/31 08:31:40;;;;;;;;;;;;;;;13.26;45.55;96696.61;1826441;78;20160;-66
2021/03/31 08:34:09;;;;;;;;;;;;;;;13.30;44.03;96693.50;1825767;78;20125;-65
2021/03/31 08:36:39;;;;;;;;;;;;;;;13.27;43.11;96700.17;1822048;79;20128;-62
2021/03/31 08:39:10;;;;;;;;;;;;;;;13.35;42.47;96699.63;1822636;78;20161;-66
2021/03/31 08:41:40;;;;;;;;;;;;;;;13.38;42.89;96696.93;1817521;79;20533;-68
2021/03/31 08:44:29;;;;;;;;;;;;;;;13.55;44.86;96692.75;1817304;79;20556;-65
2021/03/31 08:47:09;;;;;;;;;;;;;;;13.50;42.78;96694.13;1817722;79;20141;-63
2021/03/31 08:49:40;;;;;;;;;;;;;;;13.56;42.56;96693.20;1814024;79;20121;-66
2021/03/31 08:52:11;;;;;;;;;;;;;;;13.59;42.67;96691.83;1818218;79;20138;-64
2021/03/31 08:54:41;;;;;;;;;;;;;;;13.76;43.16;96692.48;1817833;79;20225;-64
2021/03/31 08:57:14;;;;;;;;;;;;;;;13.95;42.52;96687.78;1811160;79;20142;-63
2021/03/31 08:59:44;;;;;;;;;;;;;;;14.00;41.55;96689.92;1804128;79;20129;-64
2021/03/31 09:02:12;;;;;;;;;;;;;;;14.04;41.50;96683.69;1804020;80;20129;-63
2021/03/31 09:04:42;;;;;;;;;;;;;;;14.14;40.49;96671.16;1804463;79;20134;-66
2021/03/31 09:07:11;;;;;;;;;;;;;;;14.19;41.02;96674.62;1804174;79;20130;-67
2021/03/31 09:09:41;;;;;;;;;;;;;;;14.30;41.82;96673.11;1803225;80;20150;-64
2021/03/31 09:12:14;;;;;;;;;;;;;;;14.32;41.00;96677.95;1802809;79;20229;-64
2021/03/31 09:14:45;;;;;;;;;;;;;;;14.25;40.58;96673.18;1803553;80;20130;-65
2021/03/31 09:17:19;;;;;;;;;;;;;;;14.29;41.75;96673.57;1784248;80;20134;-64
2021/03/31 09:19:47;;;;;;;;;;;;;;;14.16;41.10;96672.44;1803508;80;20221;-65
2021/03/31 09:22:16;;;;;;;;;;;;;;;14.07;39.95;96670.82;1803352;79;20419;-65
2021/03/31 09:24:49;;;;;;;;;;;;;;;14.08;40.96;96657.96;1803630;80;20228;-64
2021/03/31 09:39:45;;;;;;;9.97;6.00;;;;;;;15.51;39.58;96648.31;1857711;77;22181;-64
2021/03/31 09:42:34;;;;;;;9.33;5.87;;;;;;;15.31;39.69;96651.84;1839109;77;21159;-64
2021/03/31 09:45:06;;;;;;;9.23;6.77;;;;;;;15.28;39.70;96653.23;1841847;77;21187;-64
2021/03/31 09:47:37;;;;;;;12.18;7.17;;;;;;;15.24;38.62;96646.22;1805185;78;21135;-65
2021/03/31 09:50:11;;;;;;;13.03;8.60;;;;;;;15.30;39.58;96649.64;1803438;78;21586;-64
2021/03/31 09:52:39;;;;;;;13.23;9.73;;;;;;;15.38;38.70;96644.16;1851805;77;21157;-64
2021/03/31 09:55:12;;;;;;;9.83;6.97;;;;;;;15.54;39.21;96644.25;1854691;77;21168;-64
2021/03/31 09:57:44;;;;;;;7.85;5.80;;;;;;;15.64;39.22;96638.73;1854639;77;21282;-65
2021/03/31 10:00:16;;;;;;;11.10;6.60;;;;;;;15.73;38.12;96634.13;1824921;77;21167;-65
2021/03/31 10:02:46;;;;;;;7.47;5.87;;;;;;;15.72;38.03;96632.81;1843597;77;21131;-64
2021/03/31 10:05:21;;;;;;;9.43;6.80;;;;;;;15.83;38.14;96624.62;1857640;77;21164;-65
2021/03/31 10:08:10;;;;;;;7.10;6.07;;;;;;;15.86;37.08;96628.07;1850679;77;21250;-64
2021/03/31 10:10:51;;;;;;;9.07;6.30;;;;;;;15.98;37.00;96622.47;1855550;77;21124;-65
2021/03/31 10:13:24;;;;;;;8.63;6.30;;;;;;;16.10;37.49;96619.08;1854751;77;21737;-64
2021/03/31 10:16:00;;;;;;;9.55;5.58;;;;;;;16.10;37.70;96616.42;1850290;77;21328;-64
2021/03/31 10:18:30;;;;;;;8.43;5.37;;;;;;;16.10;36.93;96616.42;1855324;77;21261;-64
2021/03/31 10:21:04;;;;;;;8.07;5.80;;;;;;;16.11;38.14;96612.86;1854257;77;21267;-65
2021/03/31 10:23:35;;;;;;;8.00;5.73;;;;;;;16.15;37.61;96610.53;1851842;77;21293;-65
2021/03/31 10:26:25;;;;;;;9.68;5.50;;;;;;;16.24;37.76;96606.31;1849328;77;21135;-64
2021/03/31 10:28:59;;;;;;;8.70;6.37;;;;;;;16.21;37.32;96609.06;1817962;78;21345;-64
2021/03/31 10:31:36;;;;;;;8.80;5.43;;;;;;;16.12;37.30;96600.83;1818163;78;21159;-65
2021/03/31 10:34:07;;;;;;;9.93;6.40;;;;;;;16.17;38.03;96608.70;1812045;78;21160;-65
2021/03/31 10:36:51;;;;;;;18.47;8.13;;;;;;;16.18;38.03;96609.14;1805621;78;21127;-65
2021/03/31 10:48:53;;;;;;;10.45;5.83;;;;;;;15.87;37.87;96600.53;1820872;78;21183;-64
2021/03/31 10:54:00;;;;;;;9.50;6.50;;;;;;;15.77;38.87;96595.01;1805040;78;21180;-65
2021/03/31 10:56:24;;;;;;;11.87;6.90;;;;;;;15.61;39.03;96596.25;1805140;78;21121;-65
2021/03/31 10:58:52;;;;;;;18.30;12.00;;;;;;;15.61;39.16;96589.13;1839257;77;21147;-65
2021/03/31 11:01:20;;;;;;;22.47;14.43;;;;;;;15.64;39.25;96584.20;1820664;78;21136;-65
2021/03/31 11:03:48;;;;;;;13.97;8.03;;;;;;;15.63;40.02;96589.98;1814489;78;21143;-65
2021/03/31 11:06:16;;;;;;;7.93;6.87;;;;;;;15.76;39.40;96583.95;1813815;79;21175;-65
2021/03/31 11:08:44;;;;;;;9.33;7.13;;;;;;;15.96;39.36;96573.71;1811236;78;21153;-65
2021/03/31 11:11:11;;;;;;;9.13;6.93;;;;;;;16.05;39.11;96571.73;1815906;78;21112;-65
2021/03/31 11:13:39;;;;;;;9.53;6.90;;;;;;;16.19;38.84;96569.61;1815397;78;21613;-65
2021/03/31 11:16:08;;;;;;;9.27;6.80;;;;;;;16.33;38.10;96571.48;1848562;77;21539;-65
2021/03/31 11:21:56;;;;;;;15.07;6.73;;;;;;;16.62;37.64;96559.17;1845910;78;21251;-65
2021/03/31 11:26:29;;;;;;;10.60;6.87;;;;;;;17.02;38.09;96547.44;1811986;78;21164;-65
2021/03/31 11:28:57;;;;;;;10.00;7.17;;;;;;;17.27;37.66;96544.92;1804847;78;21129;-65
2021/03/31 11:31:25;;;;;;;9.33;6.00;;;;;;;17.74;37.32;96538.13;1804008;78;21216;-65
2021/03/31 11:33:53;;;;;;;8.75;7.08;;;;;;;18.39;36.95;96532.00;1815206;78;21160;-65
2021/03/31 11:36:21;;;;;;;8.48;7.12;;;;;;;18.81;34.62;96528.31;1843438;77;21121;-64
2021/03/31 11:38:48;;;;;;;9.40;6.70;;;;;;;19.43;34.98;96521.55;1820392;78;21566;-65
2021/03/31 11:41:16;;;;;;;10.95;7.62;;;;;;;20.38;32.18;96518.16;1820534;78;21121;-65
2021/03/31 11:43:44;;;;;;;10.95;7.45;;;;;;;21.01;30.78;96513.23;1816806;78;21182;-65
2021/03/31 11:46:12;;;;;;;8.33;6.87;;;;;;;21.53;28.93;96504.14;1821947;78;21123;-65
2021/03/31 11:48:40;;;;;;;8.25;6.47;;;;;;;21.99;28.72;96501.91;1820012;78;21161;-65
2021/03/31 11:51:08;;;;;;;8.65;6.75;;;;;;;22.38;28.83;96496.39;1818110;78;21148;-65
2021/03/31 11:53:36;;;;;;;8.23;5.85;;;;;;;22.63;27.28;96487.92;1852315;77;21117;-65
2021/03/31 11:56:05;;;;;;;8.58;5.95;;;;;;;22.36;26.93;96491.55;1820484;79;21132;-65
2021/03/31 11:58:33;;;;;;;7.37;6.05;;;;;;;22.98;27.48;96485.67;1815965;78;21156;-65
2021/03/31 12:01:00;;;;;;;10.35;5.95;;;;;;;22.82;26.47;96482.91;1813544;78;21699;-65
2021/03/31 12:03:28;;;;;;;10.03;7.10;;;;;;;22.56;27.03;96491.88;1816276;78;21562;-65
2021/03/31 12:05:55;;;;;;;9.45;6.72;;;;;;;22.74;27.74;96482.45;1815511;78;21183;-65
2021/03/31 12:08:23;;;;;;;7.25;6.00;;;;;;;22.85;27.06;96480.91;1822680;78;21120;-65
2021/03/31 12:10:52;;;;;;;9.80;5.85;;;;;;;22.53;26.34;96479.94;1819772;78;21731;-65
2021/03/31 12:13:20;;;;;;;7.45;5.60;;;;;;;21.96;27.90;96489.97;1812457;78;21183;-65
2021/03/31 12:15:47;;;;;;;7.87;6.17;;;;;;;21.31;28.58;96486.31;1856429;77;21109;-65
2021/03/31 12:18:15;;;;;;;9.55;6.20;;;;;;;20.84;29.31;96488.49;1806055;78;21191;-65
2021/03/31 12:20:42;;;;;;;10.98;5.80;;;;;;;20.38;30.21;96486.00;1843793;77;21148;-65
2021/03/31 12:23:11;;;;;;;24.70;12.45;;;;;;;20.27;31.04;96485.13;1817118;78;21143;-65
2021/03/31 12:25:39;;;;;;;7.85;5.17;;;;;;;20.12;31.71;96466.16;1837266;77;21190;-65
2021/03/31 12:28:09;;;;;;;10.82;6.95;;;;;;;19.89;31.97;96470.67;1800262;78;21173;-65
2021/03/31 12:30:36;;;;;;;12.93;5.10;;;;;;;19.84;32.26;96469.52;1817327;78;21155;-65
2021/03/31 12:33:05;;;;;;;6.65;4.83;;;;;;;19.75;33.51;96461.86;1844329;77;21561;-65
2021/03/31 12:35:32;;;;;;;11.50;6.37;;;;;;;20.04;32.60;96456.64;1816135;78;21617;-65
2021/03/31 12:38:00;;;;;;;6.60;4.78;;;;;;;20.69;31.26;96449.37;1849964;77;21101;-65
2021/03/31 12:40:28;;;;;;;11.88;6.95;;;;;;;20.72;31.03;96449.70;1820414;79;21141;-65
2021/03/31 12:42:56;;;;;;;8.23;5.42;;;;;;;20.18;32.03;96452.48;1820392;79;21527;-65
2021/03/31 12:45:23;;;;;;;7.53;3.98;;;;;;;19.76;32.54;96448.89;1815623;78;21150;-65
2021/03/31 12:47:50;;;;;;;7.37;4.80;;;;;;;19.49;33.17;96448.17;1843486;77;21172;-65
2021/03/31 12:50:20;;;;;;;6.90;5.85;;;;;;;20.10;33.55;96440.28;1777340;79;21141;-65
2021/03/31 12:55:43;;;;;;;11.22;6.17;;;;;;;20.20;32.51;96442.58;1780398;79;24290;-65
2021/03/31 12:58:16;;;;;;;10.48;7.45;;;;;;;19.99;33.29;96438.55;1754018;82;21133;-64
2021/03/31 13:00:38;;;;;;;9.53;7.00;;;;;;;20.27;33.31;96435.55;1753172;82;21156;-64
2021/03/31 13:03:07;;;;;;;8.88;6.67;;;;;;;20.68;32.92;96437.36;1749367;82;21591;-65
2021/03/31 13:05:37;;;;;;;14.87;8.25;;;;;;;20.60;32.19;96432.83;1754154;82;21157;-65
2021/03/31 13:08:10;;;;;;;12.28;7.95;;;;;;;20.83;31.89;96419.23;1753763;82;21149;-65
2021/03/31 13:10:41;;;;;;;16.35;9.23;;;;;;;20.68;32.32;96422.61;1749523;82;21149;-65
2021/03/31 13:13:38;;;;;;;13.77;8.93;;;;;;;20.90;32.65;96418.02;1754179;81;21562;-65
2021/03/31 13:27:03;;;;;;;7.75;5.95;;;;;;;19.55;34.21;96412.24;1753875;81;21137;-64
2021/03/31 13:31:24;;;;;;;8.55;5.97;;;;;;;19.59;34.47;96405.84;1754187;82;21122;-65
2021/03/31 13:33:58;;;;;;;9.90;5.90;;;;;;;19.81;35.50;96401.84;1753967;82;21142;-65
2021/03/31 13:36:30;;;;;;;10.03;7.30;;;;;;;20.72;32.93;96394.73;1753803;82;21124;-65
2021/03/31 13:41:23;;;;;;;7.35;4.62;;;;;;;22.33;29.89;96381.97;1754189;81;21097;-65
2021/03/31 13:43:51;;;;;;;19.15;9.13;;;;;;;22.34;30.13;96379.17;1754085;82;21098;-65